PACV

Merle K (Mudhole) Smith Airport

Cordova, Alaska, USA
PACV 190208Z 1902/1924 VRB04KT P6SM SCT020 TEMPO 1902/1906 1SM BR BKN001
Issued Valid From Valid To
Jan-19 @ 02:08 UTC
(49 minutes ago)
Jan-19 @ 02:00 UTC
(57 minutes ago)
Jan-20 @ 00:00 UTC
(in 21 hours)
Jan-19 @ 02:00 to Jan-20 @ 00:00
PACV 190208Z 1902/1924 VRB04KT P6SM SCT020
Wind Visibility Clouds
Variable at 4 knots Greater than 6 miles
  • Scattered at 2,000' AGL
Temporary Jan-19 @ 02:00 to Jan-19 @ 06:00
TEMPO 1902/1906 1SM BR BKN001
Visibility Clouds Conditions
1 miles
  • Broken at 100' AGL
  • Mist
PACV 190208Z 1902/1924 VRB04KT P6SM SCT020 TEMPO 1902/1906 1SM BR BKN001
Issued Jan-19 @ 02:08 UTC
(49 minutes ago)
Valid From Jan-19 @ 02:00 UTC
(57 minutes ago)
Valid To Jan-20 @ 00:00 UTC
(in 21 hours)
Jan-19 @ 02:00 - Jan-20 @ 00:00
Wind Visibility
Variable at 4 knots Greater than 6 miles
Clouds
  • Scattered at 2,000' AGL
Temporary Jan-19 @ 02:00 - Jan-19 @ 06:00
Clouds
  • Broken at 100' AGL
Conditions
  • Mist